Time;durP1;ratioP1;P1;durP2;ratioP2;P2;SDS_P1;SDS_P2;PMS_P1;PMS_P2;Temp;Humidity;BMP_temperature;BMP_pressure;BME280_temperature;BME280_humidity;BME280_pressure;Samples;Min_cycle;Max_cycle;Signal;HPM_P1;HPM_P2
2022/09/29 00:00:28;;;;;;;3.20;2.00;;;8.20;98.00;;;;;;5073142;28;20741;-67
2022/09/29 00:02:55;;;;;;;1.20;1.20;;;8.10;98.00;;;;;;5073126;28;20487;-66
2022/09/29 00:05:22;;;;;;;1.90;1.47;;;8.00;98.00;;;;;;5073119;28;20598;-67
2022/09/29 00:07:51;;;;;;;2.23;1.90;;;8.10;98.00;;;;;;5072938;28;20458;-67
2022/09/29 00:10:18;;;;;;;1.80;1.50;;;8.10;98.00;;;;;;5072927;28;20506;-67
2022/09/29 00:12:45;;;;;;;3.77;2.17;;;8.10;98.00;;;;;;5072902;28;20454;-67
2022/09/29 00:15:13;;;;;;;2.03;1.30;;;8.10;98.00;;;;;;5072879;28;20465;-67
2022/09/29 00:17:40;;;;;;;1.80;1.43;;;8.10;98.00;;;;;;5072915;28;20973;-67
2022/09/29 00:20:09;;;;;;;2.90;2.10;;;8.10;98.00;;;;;;5072826;28;20461;-67
2022/09/29 00:22:36;;;;;;;3.00;2.00;;;8.30;98.00;;;;;;5072733;28;21035;-67
2022/09/29 00:25:05;;;;;;;2.50;1.53;;;8.30;98.00;;;;;;5055386;28;20458;-67
2022/09/29 00:27:32;;;;;;;2.07;1.80;;;8.30;98.00;;;;;;5072939;28;20515;-67
2022/09/29 00:30:00;;;;;;;2.00;1.43;;;8.40;98.00;;;;;;5073118;28;20458;-67
2022/09/29 00:32:26;;;;;;;1.80;1.30;;;8.50;98.00;;;;;;5072830;28;20849;-67
2022/09/29 00:34:53;;;;;;;1.90;1.40;;;8.50;98.00;;;;;;5072352;28;20490;-66
2022/09/29 00:37:20;;;;;;;2.57;1.50;;;8.70;98.00;;;;;;5072424;28;20480;-67
2022/09/29 00:39:47;;;;;;;1.77;1.43;;;8.70;98.00;;;;;;5072489;28;20457;-67
2022/09/29 00:42:19;;;;;;;1.87;1.23;;;8.80;98.00;;;;;;5072312;28;21026;-67
2022/09/29 00:45:12;;;;;;;1.30;1.30;;;8.90;98.00;;;;;;5072767;28;20464;-67
2022/09/29 00:47:42;;;;;;;4.73;2.30;;;9.00;98.00;;;;;;5072129;28;20490;-66
2022/09/29 00:50:16;;;;;;;1.60;1.47;;;8.80;98.00;;;;;;5072095;28;21120;-67
2022/09/29 00:52:47;;;;;;;2.13;1.20;;;8.80;98.00;;;;;;5072393;28;20458;-67
2022/09/29 00:55:18;;;;;;;1.60;1.43;;;8.80;98.00;;;;;;5071849;28;20915;-66
2022/09/29 00:57:51;;;;;;;3.13;1.77;;;8.80;98.00;;;;;;5054190;28;20462;-67
2022/09/29 01:00:18;;;;;;;1.80;1.53;;;8.70;98.00;;;;;;5071848;28;20467;-67
2022/09/29 01:02:48;;;;;;;1.73;1.70;;;8.70;98.00;;;;;;5071721;28;20540;-67
2022/09/29 01:05:19;;;;;;;2.13;1.50;;;8.70;98.00;;;;;;5072261;28;20950;-67
2022/09/29 01:07:47;;;;;;;1.60;1.50;;;8.80;98.00;;;;;;5071788;28;20550;-67
2022/09/29 01:10:16;;;;;;;3.13;1.77;;;8.80;98.00;;;;;;5071258;28;20455;-67
2022/09/29 01:12:45;;;;;;;1.50;1.37;;;8.70;98.00;;;;;;5071670;28;20495;-67
2022/09/29 01:15:15;;;;;;;2.30;1.50;;;8.70;98.00;;;;;;5071645;28;20939;-67
2022/09/29 01:17:42;;;;;;;2.37;1.40;;;8.50;98.00;;;;;;5071777;28;20464;-67
2022/09/29 01:20:15;;;;;;;1.80;1.30;;;8.40;98.00;;;;;;5071676;28;20462;-67
2022/09/29 01:23:13;;;;;;;4.00;1.90;;;8.40;98.00;;;;;;5071781;28;20483;-67
2022/09/29 01:26:10;;;;;;;1.93;1.50;;;8.60;98.00;;;;;;5072072;28;20464;-66
2022/09/29 01:29:04;;;;;;;2.53;1.63;;;8.50;98.00;;;;;;5071676;28;20456;-67
2022/09/29 01:31:41;;;;;;;3.07;1.77;;;8.50;98.00;;;;;;5036614;28;20456;-66
2022/09/29 01:34:18;;;;;;;1.60;1.50;;;8.50;98.00;;;;;;5071702;28;20470;-67
2022/09/29 01:36:54;;;;;;;1.70;1.53;;;8.60;98.00;;;;;;5071553;28;20533;-67
2022/09/29 01:39:29;;;;;;;2.83;2.07;;;8.70;98.00;;;;;;5071577;28;20461;-67
2022/09/29 01:42:02;;;;;;;2.90;1.80;;;8.60;98.00;;;;;;5071477;28;20811;-66
2022/09/29 01:44:34;;;;;;;2.13;1.47;;;8.60;98.00;;;;;;5071315;28;20484;-67
2022/09/29 01:47:08;;;;;;;3.00;1.77;;;8.70;98.00;;;;;;5071238;28;20459;-67
2022/09/29 01:49:41;;;;;;;2.40;1.60;;;8.70;98.00;;;;;;5071506;28;20459;-67
2022/09/29 01:52:10;;;;;;;3.00;1.70;;;8.80;98.00;;;;;;5071316;28;20460;-67
2022/09/29 01:54:46;;;;;;;3.10;2.57;;;8.90;98.00;;;;;;5071180;28;20459;-66
2022/09/29 01:57:19;;;;;;;3.30;2.30;;;8.80;98.00;;;;;;5053596;28;20948;-67
2022/09/29 01:59:52;;;;;;;2.37;2.00;;;8.80;98.00;;;;;;5071134;28;20460;-67
2022/09/29 02:02:36;;;;;;;3.07;1.60;;;8.90;98.00;;;;;;5070960;28;20966;-66
2022/09/29 02:05:08;;;;;;;1.50;1.47;;;8.70;98.00;;;;;;5071061;28;20449;-67
2022/09/29 02:07:39;;;;;;;2.13;1.70;;;8.70;98.00;;;;;;5071615;28;20491;-67
2022/09/29 02:10:12;;;;;;;1.57;1.23;;;8.70;98.00;;;;;;5071102;28;20449;-67
2022/09/29 02:12:42;;;;;;;3.23;2.00;;;8.80;98.00;;;;;;5071354;28;20454;-66
2022/09/29 02:15:14;;;;;;;2.97;2.07;;;8.70;98.00;;;;;;5070942;28;20462;-67
2022/09/29 02:17:45;;;;;;;3.30;1.80;;;8.90;98.00;;;;;;5071094;28;20525;-67
2022/09/29 02:20:14;;;;;;;4.07;1.83;;;8.90;98.00;;;;;;5071245;28;20464;-67
2022/09/29 02:22:43;;;;;;;1.80;1.40;;;8.90;98.00;;;;;;5072534;28;20543;-67
2022/09/29 02:25:14;;;;;;;1.77;1.40;;;8.80;98.00;;;;;;5075118;28;21266;-67
2022/09/29 02:27:41;;;;;;;1.43;1.37;;;8.90;98.00;;;;;;5075408;28;20469;-67
2022/09/29 02:30:11;;;;;;;2.27;1.50;;;8.80;98.00;;;;;;5074935;28;20456;-66
2022/09/29 02:32:38;;;;;;;1.40;1.40;;;8.70;98.00;;;;;;5074864;28;20465;-66
2022/09/29 02:35:14;;;;;;;3.97;1.90;;;8.70;98.00;;;;;;5074635;28;20464;-66
2022/09/29 02:37:53;;;;;;;1.60;1.50;;;8.70;98.00;;;;;;5074762;28;20539;-67
2022/09/29 02:40:32;;;;;;;2.63;1.80;;;8.60;98.00;;;;;;5074615;28;20510;-67
2022/09/29 02:43:17;;;;;;;2.57;1.70;;;8.60;98.00;;;;;;5074480;28;20487;-66
2022/09/29 02:45:56;;;;;;;2.13;1.50;;;8.60;98.00;;;;;;5074554;28;20941;-67
2022/09/29 02:48:55;;;;;;;2.20;1.60;;;8.60;98.00;;;;;;5074458;28;20454;-67
2022/09/29 02:51:41;;;;;;;1.43;1.30;;;8.60;98.00;;;;;;5074636;28;20455;-67
2022/09/29 02:54:29;;;;;;;3.33;1.60;;;8.70;98.00;;;;;;5074368;28;20451;-67
2022/09/29 02:57:10;;;;;;;2.00;1.50;;;8.60;98.00;;;;;;5074319;28;20456;-67
2022/09/29 02:59:45;;;;;;;7.13;2.30;;;8.80;98.00;;;;;;5074035;28;20985;-66
2022/09/29 03:02:12;;;;;;;1.50;1.40;;;8.80;98.00;;;;;;5074658;28;20806;-67
2022/09/29 03:04:39;;;;;;;2.47;1.70;;;8.60;98.00;;;;;;5074384;28;20487;-67
2022/09/29 03:07:08;;;;;;;1.87;1.70;;;8.50;98.00;;;;;;5074170;28;20490;-67
2022/09/29 03:09:35;;;;;;;2.53;1.97;;;8.50;98.00;;;;;;5074303;28;20464;-67
2022/09/29 03:12:02;;;;;;;2.17;1.70;;;8.40;98.00;;;;;;5074024;28;20889;-67
2022/09/29 03:14:29;;;;;;;3.00;1.60;;;8.50;98.00;;;;;;5073990;28;20951;-66
2022/09/29 03:16:56;;;;;;;3.43;1.87;;;8.30;98.00;;;;;;5073653;28;20515;-67
2022/09/29 03:19:24;;;;;;;4.20;2.17;;;8.40;98.00;;;;;;5073982;28;20833;-67
2022/09/29 03:21:51;;;;;;;3.13;1.80;;;8.60;98.00;;;;;;5073621;28;20461;-67
2022/09/29 03:24:19;;;;;;;2.07;1.60;;;8.70;98.00;;;;;;5073632;28;20488;-66
2022/09/29 03:26:47;;;;;;;2.17;1.70;;;8.90;98.00;;;;;;5074221;28;20861;-67
2022/09/29 03:29:14;;;;;;;2.10;1.70;;;8.90;98.00;;;;;;5073839;28;20453;-67
2022/09/29 03:31:44;;;;;;;2.80;1.67;;;8.80;98.00;;;;;;5073910;28;20988;-67
2022/09/29 03:34:11;;;;;;;1.93;1.50;;;8.80;98.00;;;;;;5073096;28;20456;-66
2022/09/29 03:36:40;;;;;;;4.40;2.03;;;8.60;98.00;;;;;;5073594;28;20513;-67
2022/09/29 03:39:08;;;;;;;1.60;1.33;;;8.40;98.00;;;;;;5073534;28;20460;-67
2022/09/29 03:41:36;;;;;;;2.50;1.80;;;8.30;98.00;;;;;;5073695;28;20470;-67
2022/09/29 03:44:03;;;;;;;2.27;1.63;;;8.10;98.00;;;;;;5073614;28;20506;-67
2022/09/29 03:46:30;;;;;;;3.53;2.00;;;8.00;98.00;;;;;;5073606;28;20464;-67
2022/09/29 03:48:58;;;;;;;1.57;1.27;;;8.00;98.00;;;;;;5073246;28;20513;-67
2022/09/29 03:51:26;;;;;;;3.23;2.13;;;8.00;98.00;;;;;;5073560;28;20461;-66
2022/09/29 03:53:54;;;;;;;1.87;1.77;;;8.10;98.00;;;;;;5055732;28;20459;-67
2022/09/29 03:56:21;;;;;;;1.87;1.60;;;8.10;98.00;;;;;;5073339;28;20451;-67
2022/09/29 03:58:50;;;;;;;2.73;1.97;;;8.10;98.00;;;;;;5073112;28;20549;-67
2022/09/29 04:01:17;;;;;;;1.63;1.57;;;8.10;98.00;;;;;;5073020;28;20835;-67
2022/09/29 04:03:44;;;;;;;3.10;1.80;;;8.20;98.00;;;;;;5072915;28;20480;-67
2022/09/29 04:06:11;;;;;;;1.63;1.60;;;8.20;98.00;;;;;;5073292;28;20822;-67
2022/09/29 04:08:38;;;;;;;2.60;1.80;;;8.10;98.00;;;;;;5072958;28;20464;-67
2022/09/29 04:11:07;;;;;;;1.47;1.30;;;8.10;98.00;;;;;;5072945;28;20460;-66
2022/09/29 04:13:34;;;;;;;1.80;1.60;;;8.00;98.00;;;;;;5072998;28;20466;-67
2022/09/29 04:16:07;;;;;;;1.63;1.37;;;7.90;98.00;;;;;;5073138;28;20464;-67
2022/09/29 04:18:34;;;;;;;1.63;1.50;;;7.70;98.00;;;;;;5073254;28;20968;-67
2022/09/29 04:21:06;;;;;;;2.10;1.57;;;7.40;98.00;;;;;;5073019;28;20524;-66
2022/09/29 04:23:33;;;;;;;2.50;1.53;;;7.40;98.00;;;;;;5072761;28;20634;-66
2022/09/29 04:26:01;;;;;;;2.33;1.63;;;7.40;98.00;;;;;;5072983;28;20946;-67
2022/09/29 04:28:30;;;;;;;1.90;1.30;;;7.40;98.00;;;;;;5072703;28;20498;-67
2022/09/29 04:30:57;;;;;;;2.00;1.40;;;7.50;98.00;;;;;;5072858;28;20467;-66
2022/09/29 04:33:28;;;;;;;2.30;1.93;;;7.30;98.00;;;;;;5072739;28;20458;-67
2022/09/29 04:35:56;;;;;;;1.40;1.23;;;7.40;98.00;;;;;;5055329;28;20459;-67
2022/09/29 04:38:23;;;;;;;1.40;1.37;;;7.40;98.00;;;;;;5072387;28;20469;-67
2022/09/29 04:40:51;;;;;;;2.37;1.70;;;7.40;98.00;;;;;;5072305;28;20879;-66
2022/09/29 04:43:19;;;;;;;2.07;1.60;;;7.40;98.00;;;;;;5072374;28;20457;-67
2022/09/29 04:45:55;;;;;;;1.70;1.50;;;7.40;98.00;;;;;;5071719;28;20449;-67
2022/09/29 04:48:22;;;;;;;1.80;1.30;;;7.20;98.00;;;;;;5072141;28;20458;-66
2022/09/29 04:50:51;;;;;;;1.77;1.27;;;7.10;98.00;;;;;;5072221;28;20457;-67
2022/09/29 04:53:18;;;;;;;2.37;1.53;;;7.00;98.00;;;;;;5054468;28;20456;-67
2022/09/29 04:55:46;;;;;;;1.40;1.20;;;7.00;98.00;;;;;;5072486;28;20548;-66
2022/09/29 04:58:14;;;;;;;1.93;1.60;;;7.20;98.00;;;;;;5054402;28;20454;-66
2022/09/29 05:00:41;;;;;;;5.13;2.17;;;7.30;98.00;;;;;;5071776;28;20500;-67
2022/09/29 05:03:08;;;;;;;1.73;1.40;;;7.40;98.00;;;;;;5071823;28;20504;-67
2022/09/29 05:05:35;;;;;;;1.73;1.40;;;7.50;98.00;;;;;;5071834;28;21015;-67
2022/09/29 05:08:05;;;;;;;1.30;1.17;;;7.50;98.00;;;;;;5072015;28;20508;-67
2022/09/29 05:10:32;;;;;;;4.53;1.67;;;7.50;98.00;;;;;;5054278;28;20453;-67
2022/09/29 05:12:59;;;;;;;2.70;1.57;;;7.40;98.00;;;;;;5071917;28;20465;-67
2022/09/29 05:15:26;;;;;;;2.40;2.00;;;7.40;98.00;;;;;;5054167;28;20864;-67
2022/09/29 05:17:54;;;;;;;1.80;1.40;;;7.30;98.00;;;;;;5071717;28;20810;-67
2022/09/29 05:20:21;;;;;;;1.20;1.10;;;7.40;98.00;;;;;;5071645;28;20457;-66
2022/09/29 05:22:48;;;;;;;1.70;1.30;;;7.40;98.00;;;;;;5071763;28;20453;-66
2022/09/29 05:25:17;;;;;;;2.53;1.83;;;7.60;98.00;;;;;;5071829;28;20486;-67
2022/09/29 05:27:44;;;;;;;2.80;1.67;;;7.60;98.00;;;;;;5071592;28;20452;-67
2022/09/29 05:30:12;;;;;;;2.00;1.83;;;7.60;98.00;;;;;;5071859;28;20860;-67
2022/09/29 05:32:39;;;;;;;1.90;1.50;;;7.60;98.00;;;;;;5037352;28;21031;-67
2022/09/29 05:35:08;;;;;;;1.87;1.50;;;7.60;98.00;;;;;;5071412;28;20471;-67
2022/09/29 05:37:36;;;;;;;2.47;1.80;;;7.70;98.00;;;;;;5070038;28;20855;-66
2022/09/29 05:40:03;;;;;;;3.43;1.60;;;7.80;98.00;;;;;;5071494;28;20510;-67
2022/09/29 05:42:32;;;;;;;3.13;1.90;;;7.80;98.00;;;;;;5053855;28;20503;-67
2022/09/29 05:44:59;;;;;;;5.23;2.33;;;7.80;98.00;;;;;;5071019;28;20487;-66
2022/09/29 05:47:27;;;;;;;1.93;1.47;;;7.70;98.00;;;;;;5071271;28;20469;-67
2022/09/29 05:49:54;;;;;;;1.83;1.37;;;7.70;98.00;;;;;;5071199;28;20463;-67
2022/09/29 05:52:21;;;;;;;4.57;2.20;;;7.60;98.00;;;;;;5053828;28;21090;-67
2022/09/29 05:54:49;;;;;;;2.10;1.60;;;7.60;98.00;;;;;;5071080;28;20605;-67
2022/09/29 05:57:19;;;;;;;2.13;1.60;;;7.60;98.00;;;;;;5070991;28;20456;-66
2022/09/29 05:59:47;;;;;;;5.63;2.17;;;7.60;98.00;;;;;;5069975;28;20470;-67
2022/09/29 06:02:15;;;;;;;3.50;2.43;;;7.80;98.00;;;;;;5071054;28;20459;-66
2022/09/29 06:04:43;;;;;;;2.80;2.03;;;8.10;98.00;;;;;;5071046;28;20482;-66
2022/09/29 06:07:10;;;;;;;3.20;1.80;;;8.30;98.00;;;;;;5053216;28;20958;-66
2022/09/29 06:09:38;;;;;;;1.70;1.37;;;8.30;98.00;;;;;;5070969;28;20460;-66
2022/09/29 06:12:06;;;;;;;3.60;2.50;;;8.30;98.00;;;;;;5070975;28;21029;-67
2022/09/29 06:14:33;;;;;;;3.30;1.93;;;8.30;98.00;;;;;;5071055;28;20455;-67
2022/09/29 06:17:02;;;;;;;4.17;2.13;;;8.30;98.00;;;;;;5069578;28;20531;-66
2022/09/29 06:19:29;;;;;;;3.90;1.80;;;8.30;98.00;;;;;;5071079;28;20806;-67
2022/09/29 06:21:56;;;;;;;2.90;1.93;;;8.30;98.00;;;;;;5071033;28;20454;-67
2022/09/29 06:24:24;;;;;;;3.40;2.03;;;8.50;98.00;;;;;;5071228;28;20890;-66
2022/09/29 06:26:51;;;;;;;4.20;2.60;;;8.50;98.00;;;;;;5071258;28;20512;-67
2022/09/29 06:29:18;;;;;;;2.13;1.77;;;8.50;98.00;;;;;;5053157;28;20482;-63
2022/09/29 06:31:46;;;;;;;2.87;1.87;;;8.40;98.00;;;;;;5071189;28;20763;-63
2022/09/29 06:34:14;;;;;;;4.70;2.70;;;8.30;98.00;;;;;;5070536;28;20517;-63
2022/09/29 06:39:42;;;;;;;3.67;2.23;;;8.20;98.00;;;;;;5008463;28;20471;-63
2022/09/29 06:42:11;;;;;;;4.77;2.60;;;8.30;98.00;;;;;;5008733;28;20897;-63
2022/09/29 06:44:38;;;;;;;3.00;2.37;;;8.40;98.00;;;;;;5019722;28;20511;-63
2022/09/29 06:47:05;;;;;;;2.53;1.90;;;8.50;98.00;;;;;;5053063;28;20814;-63
2022/09/29 06:49:33;;;;;;;3.70;2.57;;;8.70;98.00;;;;;;5070526;28;20464;-64
2022/09/29 06:52:02;;;;;;;2.07;1.40;;;8.80;98.00;;;;;;5070653;28;20455;-63
2022/09/29 06:54:30;;;;;;;2.50;2.23;;;8.90;98.00;;;;;;5070792;28;20455;-63
2022/09/29 06:56:57;;;;;;;3.90;2.00;;;9.10;98.00;;;;;;5053054;28;20451;-63
2022/09/29 06:59:24;;;;;;;3.63;2.57;;;9.20;98.00;;;;;;5070313;28;20454;-63
2022/09/29 07:01:53;;;;;;;4.30;2.87;;;9.30;98.00;;;;;;5070751;28;20459;-63
2022/09/29 07:04:21;;;;;;;5.27;2.50;;;9.50;98.00;;;;;;5070539;28;20482;-63
2022/09/29 07:06:49;;;;;;;2.17;1.73;;;9.60;98.00;;;;;;5070746;28;20977;-63
2022/09/29 07:09:17;;;;;;;3.83;2.23;;;9.70;98.00;;;;;;5072475;28;20477;-63
2022/09/29 07:11:45;;;;;;;2.63;1.93;;;9.70;98.00;;;;;;5074268;28;20467;-63
2022/09/29 07:14:13;;;;;;;2.20;1.70;;;9.70;98.00;;;;;;5074067;28;20449;-63
2022/09/29 07:16:40;;;;;;;1.97;1.70;;;9.70;98.00;;;;;;5074277;28;20501;-63
2022/09/29 07:19:07;;;;;;;2.97;1.97;;;9.80;98.00;;;;;;5074053;28;20462;-63
2022/09/29 07:21:34;;;;;;;2.90;1.87;;;9.80;98.00;;;;;;5074199;28;20463;-63
2022/09/29 07:24:03;;;;;;;2.53;2.23;;;9.70;98.00;;;;;;5074060;28;20522;-63
2022/09/29 07:26:30;;;;;;;4.00;2.00;;;9.80;98.00;;;;;;5074132;28;20468;-63
2022/09/29 07:28:57;;;;;;;4.20;2.63;;;9.70;98.00;;;;;;5073888;28;20843;-63
2022/09/29 07:31:24;;;;;;;2.60;1.83;;;9.90;98.00;;;;;;5074084;28;21024;-64
2022/09/29 07:33:53;;;;;;;1.90;1.70;;;10.00;98.00;;;;;;5073713;28;20456;-64
2022/09/29 07:36:21;;;;;;;2.20;2.07;;;10.20;98.00;;;;;;5073681;28;20467;-64
2022/09/29 07:38:49;;;;;;;3.30;2.67;;;10.10;98.00;;;;;;5073675;28;20460;-63
2022/09/29 07:41:21;;;;;;;1.90;1.60;;;10.20;98.00;;;;;;5073663;28;20455;-64
2022/09/29 07:43:48;;;;;;;3.60;1.60;;;10.20;98.00;;;;;;5073573;28;21007;-64
2022/09/29 07:46:16;;;;;;;2.73;1.93;;;10.30;98.00;;;;;;5073524;28;20538;-64
2022/09/29 07:48:43;;;;;;;2.70;1.70;;;10.40;98.00;;;;;;5071955;28;20489;-64
2022/09/29 07:51:12;;;;;;;2.23;1.83;;;10.30;98.00;;;;;;5066937;28;20481;-64
2022/09/29 07:53:41;;;;;;;2.70;1.90;;;10.30;98.00;;;;;;5070971;28;20459;-65
2022/09/29 07:56:10;;;;;;;2.13;1.93;;;10.40;98.00;;;;;;5071081;28;20954;-64
2022/09/29 07:58:39;;;;;;;2.00;1.63;;;10.50;98.00;;;;;;5070942;28;20815;-65
2022/09/29 08:01:09;;;;;;;2.90;1.90;;;10.50;98.00;;;;;;5070679;28;20483;-65
2022/09/29 08:03:37;;;;;;;9.80;2.97;;;10.60;98.00;;;;;;5070188;28;20456;-63
2022/09/29 08:06:05;;;;;;;5.33;2.30;;;10.60;98.00;;;;;;5070887;28;20500;-64
2022/09/29 08:08:32;;;;;;;3.10;2.00;;;10.70;98.00;;;;;;5071054;28;20454;-65
2022/09/29 08:11:03;;;;;;;3.93;2.00;;;10.90;98.00;;;;;;5070648;28;20465;-65
2022/09/29 08:13:31;;;;;;;1.80;1.70;;;10.90;98.00;;;;;;5070704;28;20465;-65
2022/09/29 08:16:00;;;;;;;2.43;1.97;;;10.90;98.00;;;;;;5070335;28;20935;-64
2022/09/29 08:18:29;;;;;;;2.80;2.30;;;11.00;98.00;;;;;;5070299;28;20476;-65
2022/09/29 08:20:56;;;;;;;3.73;1.97;;;11.10;98.00;;;;;;5070288;28;20457;-65
2022/09/29 08:23:23;;;;;;;3.30;2.23;;;11.10;98.00;;;;;;5070445;28;20949;-64
2022/09/29 08:25:51;;;;;;;3.87;2.30;;;11.10;98.00;;;;;;5070014;28;20500;-64
2022/09/29 08:28:19;;;;;;;3.90;1.97;;;11.10;98.00;;;;;;5070760;28;21023;-65
2022/09/29 08:30:46;;;;;;;2.77;1.90;;;11.10;98.00;;;;;;5070221;28;20458;-65
2022/09/29 08:33:15;;;;;;;2.77;2.00;;;11.10;98.00;;;;;;5070097;28;20477;-64
2022/09/29 08:35:42;;;;;;;2.30;1.87;;;11.10;98.00;;;;;;5070059;28;20456;-64
2022/09/29 08:38:09;;;;;;;2.97;1.90;;;11.20;98.00;;;;;;5070043;28;20454;-65
2022/09/29 08:40:36;;;;;;;2.77;1.90;;;11.40;98.00;;;;;;5072121;28;20471;-64
2022/09/29 08:43:22;;;;;;;3.07;1.93;;;11.50;98.00;;;;;;5070000;28;20668;-65
2022/09/29 08:45:58;;;;;;;2.97;1.97;;;11.50;98.00;;;;;;5069796;28;20490;-65
2022/09/29 08:48:30;;;;;;;2.30;1.90;;;11.60;98.00;;;;;;5069988;28;20467;-64
2022/09/29 08:51:00;;;;;;;3.07;1.90;;;11.80;98.00;;;;;;5068649;28;20964;-64
2022/09/29 08:53:32;;;;;;;2.53;1.83;;;12.00;98.00;;;;;;5070020;28;20960;-65
2022/09/29 08:56:02;;;;;;;2.07;1.47;;;12.10;98.00;;;;;;5052354;28;20952;-66
2022/09/29 08:58:31;;;;;;;3.50;1.90;;;12.00;98.00;;;;;;5070158;28;20639;-65
2022/09/29 09:01:10;;;;;;;2.47;2.17;;;12.20;98.00;;;;;;5069410;28;20476;-65
2022/09/29 09:04:06;;;;;;;3.03;1.90;;;12.40;98.00;;;;;;5061964;28;20462;-64
2022/09/29 09:06:48;;;;;;;1.60;1.50;;;12.40;98.00;;;;;;5069382;28;20779;-65
2022/09/29 09:09:41;;;;;;;2.67;2.00;;;12.40;98.00;;;;;;5069244;28;20557;-65
2022/09/29 09:12:42;;;;;;;2.80;1.80;;;12.50;98.00;;;;;;5069547;28;20957;-64
2022/09/29 09:15:54;;;;;;;3.30;1.97;;;12.70;98.00;;;;;;5069172;28;20457;-63
2022/09/29 09:18:41;;;;;;;1.80;1.70;;;12.80;98.00;;;;;;5007386;28;20585;-66
2022/09/29 09:21:15;;;;;;;3.50;1.83;;;12.90;98.00;;;;;;5057035;28;20459;-65
2022/09/29 09:23:54;;;;;;;3.20;2.00;;;12.90;98.00;;;;;;5069198;28;20461;-65
2022/09/29 09:26:32;;;;;;;5.13;2.03;;;13.00;98.00;;;;;;5069114;28;20596;-65
2022/09/29 09:29:03;;;;;;;1.80;1.50;;;13.00;98.00;;;;;;5069323;28;20455;-66
2022/09/29 09:31:39;;;;;;;4.63;1.93;;;13.00;98.00;;;;;;5068981;28;20494;-65
2022/09/29 09:34:14;;;;;;;2.90;1.80;;;13.20;98.00;;;;;;5051268;28;20804;-65
2022/09/29 09:36:48;;;;;;;4.00;2.17;;;13.20;98.00;;;;;;5069260;28;20462;-65
2022/09/29 09:39:19;;;;;;;1.73;1.50;;;13.30;98.00;;;;;;5068931;28;20938;-65
2022/09/29 09:41:51;;;;;;;2.23;1.57;;;13.30;98.00;;;;;;5069432;28;20459;-65
2022/09/29 09:44:25;;;;;;;2.30;1.70;;;13.50;98.00;;;;;;5060744;28;20455;-65
2022/09/29 09:46:57;;;;;;;2.87;1.90;;;13.60;98.00;;;;;;5068561;28;20501;-65
2022/09/29 09:49:27;;;;;;;1.97;1.60;;;13.60;98.00;;;;;;5049863;28;20521;-65
2022/09/29 09:52:03;;;;;;;2.03;1.77;;;13.60;98.00;;;;;;5069126;28;20463;-66
2022/09/29 09:54:35;;;;;;;2.37;1.93;;;13.50;98.00;;;;;;5068890;28;20463;-65
2022/09/29 09:57:21;;;;;;;3.00;1.63;;;13.30;98.00;;;;;;5068726;28;20824;-65
2022/09/29 10:00:00;;;;;;;2.70;2.13;;;13.30;98.00;;;;;;5068502;28;20475;-65
2022/09/29 10:02:27;;;;;;;1.83;1.70;;;13.50;98.00;;;;;;5068344;28;20961;-65
2022/09/29 10:04:58;;;;;;;5.97;1.87;;;13.60;98.00;;;;;;5072354;28;20496;-65
2022/09/29 10:07:30;;;;;;;2.03;1.60;;;13.60;98.00;;;;;;5069322;28;20560;-65
2022/09/29 10:10:02;;;;;;;3.73;1.53;;;13.70;98.00;;;;;;5068546;28;20510;-65
2022/09/29 10:12:29;;;;;;;2.70;1.87;;;13.60;98.00;;;;;;5068838;28;20539;-65
2022/09/29 10:15:04;;;;;;;3.07;1.70;;;13.60;98.00;;;;;;5050714;28;20956;-65
2022/09/29 10:17:44;;;;;;;3.30;1.80;;;13.70;98.00;;;;;;5050516;28;20549;-65
2022/09/29 10:20:11;;;;;;;1.30;1.30;;;13.90;98.00;;;;;;5068926;28;20458;-65
2022/09/29 10:22:39;;;;;;;3.40;1.57;;;14.10;98.00;;;;;;5069253;28;20456;-65
2022/09/29 10:25:15;;;;;;;1.30;1.30;;;14.20;98.00;;;;;;5068950;28;20457;-65
2022/09/29 10:27:45;;;;;;;1.40;1.20;;;14.40;98.00;;;;;;5051337;28;21012;-65
2022/09/29 10:30:21;;;;;;;4.33;2.03;;;14.50;98.00;;;;;;5069183;28;20472;-65
2022/09/29 10:32:49;;;;;;;6.47;1.90;;;14.60;98.00;;;;;;5068895;28;20489;-65
2022/09/29 10:35:22;;;;;;;2.70;1.80;;;14.80;98.00;;;;;;5068832;28;21020;-65
2022/09/29 10:37:58;;;;;;;2.37;1.73;;;15.00;98.00;;;;;;5069011;28;20579;-65
2022/09/29 10:40:26;;;;;;;2.70;1.93;;;15.20;98.00;;;;;;5071703;28;20457;-65
2022/09/29 10:42:53;;;;;;;1.60;1.30;;;15.40;98.00;;;;;;5071481;28;20450;-65
2022/09/29 10:45:28;;;;;;;1.80;1.70;;;15.40;98.00;;;;;;5075106;28;20485;-65
2022/09/29 10:48:13;;;;;;;1.60;1.40;;;15.40;98.00;;;;;;5075054;28;20479;-65
2022/09/29 10:50:53;;;;;;;4.90;1.90;;;15.30;98.00;;;;;;5073807;28;20456;-65
2022/09/29 10:53:36;;;;;;;2.47;1.70;;;15.30;98.00;;;;;;5074597;28;20466;-65
2022/09/29 10:56:14;;;;;;;3.63;1.70;;;15.20;98.00;;;;;;5056694;28;20455;-65
2022/09/29 10:58:45;;;;;;;1.90;1.37;;;15.10;98.00;;;;;;5057834;28;20452;-65
2022/09/29 11:01:17;;;;;;;2.60;1.70;;;15.00;98.00;;;;;;5074512;28;20466;-65
2022/09/29 11:03:50;;;;;;;2.00;1.60;;;15.00;98.00;;;;;;5074937;28;20457;-66
2022/09/29 11:06:17;;;;;;;2.40;2.07;;;15.10;98.00;;;;;;5057317;28;20484;-65
2022/09/29 11:09:00;;;;;;;3.50;2.33;;;15.20;98.00;;;;;;5074968;28;20956;-65
2022/09/29 11:11:29;;;;;;;2.27;1.90;;;15.20;98.00;;;;;;5075022;28;20456;-65
2022/09/29 11:13:57;;;;;;;1.60;1.50;;;15.10;98.00;;;;;;5074801;28;20461;-65
2022/09/29 11:16:28;;;;;;;2.07;1.40;;;15.10;98.00;;;;;;5074891;28;20467;-65
2022/09/29 11:18:59;;;;;;;2.70;1.80;;;15.10;98.00;;;;;;5074797;28;20556;-65
2022/09/29 11:22:11;;;;;;;3.87;1.93;;;15.10;98.00;;;;;;5075032;28;20459;-65
2022/09/29 11:25:21;;;;;;;2.57;1.53;;;15.10;98.00;;;;;;5074981;28;20457;-65
2022/09/29 11:28:06;;;;;;;2.43;1.50;;;15.30;98.00;;;;;;5074677;28;20520;-65
2022/09/29 11:30:47;;;;;;;2.60;1.70;;;15.40;98.00;;;;;;5074674;28;20465;-66
2022/09/29 11:33:25;;;;;;;2.20;1.70;;;15.70;98.00;;;;;;5074442;28;20799;-65
2022/09/29 11:35:58;;;;;;;2.00;1.60;;;15.90;98.00;;;;;;5074532;28;20452;-65
2022/09/29 11:38:58;;;;;;;1.77;1.40;;;16.20;98.00;;;;;;5074391;28;20455;-65
2022/09/29 11:41:45;;;;;;;2.90;1.73;;;16.20;98.00;;;;;;5074466;28;20953;-65
2022/09/29 11:44:31;;;;;;;1.80;1.50;;;16.30;98.00;;;;;;5074125;28;20454;-65
2022/09/29 11:47:10;;;;;;;2.00;1.47;;;16.20;98.00;;;;;;5074054;28;20551;-65
2022/09/29 11:50:01;;;;;;;1.63;1.60;;;16.00;98.00;;;;;;5074139;28;20463;-65
2022/09/29 11:52:51;;;;;;;1.90;1.47;;;15.70;98.00;;;;;;5073909;28;20463;-65
2022/09/29 11:55:44;;;;;;;3.50;1.77;;;15.70;98.00;;;;;;5073621;28;20465;-65
2022/09/29 11:58:28;;;;;;;1.70;1.37;;;15.60;98.00;;;;;;5073781;28;20463;-65
2022/09/29 12:01:07;;;;;;;1.40;1.30;;;15.70;98.00;;;;;;5073842;28;20882;-65
2022/09/29 12:03:45;;;;;;;1.90;1.47;;;16.10;98.00;;;;;;5073901;28;20461;-65
2022/09/29 12:06:56;;;;;;;1.87;1.57;;;16.50;98.00;;;;;;5073801;28;20625;-65
2022/09/29 12:09:57;;;;;;;2.13;1.83;;;16.70;98.00;;;;;;5058453;28;20556;-65
2022/09/29 12:12:32;;;;;;;1.33;1.30;;;16.70;98.00;;;;;;5039719;28;20466;-65
2022/09/29 12:15:23;;;;;;;2.33;1.60;;;17.40;98.00;;;;;;5073612;28;20504;-65
2022/09/29 12:17:55;;;;;;;2.57;1.60;;;17.80;98.00;;;;;;5073645;28;20938;-65
2022/09/29 12:20:26;;;;;;;1.63;1.40;;;17.90;98.00;;;;;;5073798;28;20484;-65
2022/09/29 12:22:56;;;;;;;2.80;1.73;;;17.80;98.00;;;;;;5073501;28;20471;-65
2022/09/29 12:25:26;;;;;;;2.13;1.60;;;17.70;98.00;;;;;;5073690;28;20487;-65
2022/09/29 12:27:57;;;;;;;1.60;1.50;;;17.60;98.00;;;;;;5073502;28;20512;-65
2022/09/29 12:30:29;;;;;;;3.53;1.70;;;17.40;98.00;;;;;;5073626;28;20561;-65
2022/09/29 12:33:04;;;;;;;2.40;1.87;;;17.60;98.00;;;;;;5073179;28;20510;-65
2022/09/29 12:35:37;;;;;;;11.73;1.70;;;17.90;98.00;;;;;;5073208;28;20466;-65
2022/09/29 12:38:16;;;;;;;2.53;1.53;;;18.20;98.00;;;;;;5073226;28;20457;-65
2022/09/29 12:40:50;;;;;;;1.80;1.50;;;18.20;96.80;;;;;;5072876;28;20973;-65
2022/09/29 12:43:22;;;;;;;1.60;1.40;;;18.10;97.90;;;;;;5072418;28;20448;-65
2022/09/29 12:45:57;;;;;;;1.57;1.33;;;18.10;97.80;;;;;;5071731;28;20526;-66
2022/09/29 12:48:35;;;;;;;1.80;1.53;;;17.90;98.00;;;;;;5072211;28;20463;-66
2022/09/29 12:51:09;;;;;;;1.40;1.30;;;17.90;97.10;;;;;;5072226;28;20475;-66
2022/09/29 12:53:40;;;;;;;2.40;1.80;;;17.80;97.30;;;;;;5071748;28;20448;-65
2022/09/29 12:56:12;;;;;;;2.17;1.60;;;17.60;97.10;;;;;;5072009;28;20909;-65
2022/09/29 12:58:46;;;;;;;1.80;1.57;;;17.40;98.00;;;;;;5072002;28;20456;-66
2022/09/29 13:01:25;;;;;;;1.70;1.50;;;17.90;98.00;;;;;;5071602;28;20460;-66
2022/09/29 13:04:49;;;;;;;1.70;1.60;;;18.30;95.80;;;;;;5071970;28;20467;-66
2022/09/29 13:07:54;;;;;;;2.00;1.50;;;18.30;93.10;;;;;;5071048;28;20671;-65
2022/09/29 13:10:50;;;;;;;2.70;1.57;;;18.30;92.80;;;;;;5054224;28;20464;-66
2022/09/29 13:13:50;;;;;;;1.90;1.50;;;18.30;93.90;;;;;;5071748;28;20460;-66
2022/09/29 13:16:40;;;;;;;1.83;1.50;;;18.50;94.60;;;;;;5067102;28;20510;-65
2022/09/29 13:19:49;;;;;;;1.50;1.30;;;18.30;93.50;;;;;;5053412;28;20468;-65
2022/09/29 13:22:46;;;;;;;1.53;1.40;;;18.00;90.70;;;;;;5035563;28;20456;-65
2022/09/29 13:25:22;;;;;;;1.70;1.30;;;17.90;91.50;;;;;;5045872;28;20823;-65